»·PEaware :: ASA247 CYLW-KSEA

ASA247 :: CYLW-KSEA

FLIGHT INFORMATION

Flight Status: Arrived
Operator:
Alaska Airlines
More flights by this operator :: More flights under this callsign
Pilot: Mark V. (9547)
Aircraft: BOEING 737-900
(B739)
More flights by this aircraft type
Origin: CYLW Kelowna
Canada
Destination: KSEA Seattle-Tacoma Intl
United States
More flights between these airports :: More routes between these airports
Route: CYLW7 YDC GLASR GLASR1
File this flight plan on PilotEdge
Remarks:
Altitude:
(Current/Filed)
30,000ft
Speed:
(Current/Filed)
425kts
Departed: 26-Aug-17 06:34 PM
Arrived: 26-Aug-17 07:19 PM
Distance/Time
Traveled:
190nm/0:44
Distance/Time
To Go:
Arrived

Flight Plot

Page will automatically refresh every two minutes.

Flight plan parsing failed; only flown route is shown


Map Options




Map Legend


Flown Route
Filed Route
Departure Airport
Arrival Airport
Navaid (VOR, NDB)
Fix

Horizontal Profiles

Position Reports

Time Latitude Longitude Heading Altitude Ground
Speed
26-Aug-17 18:17 49.951392 -119.380442 268 1382ft 0kts
26-Aug-17 18:18 49.951392 -119.380442 268 1382ft 0kts
26-Aug-17 18:19 49.951392 -119.380442 268 1382ft 0kts
26-Aug-17 18:20 49.951392 -119.380442 268 1383ft 0kts
26-Aug-17 18:21 49.951392 -119.380442 268 1383ft 0kts
26-Aug-17 18:22 49.951392 -119.380442 268 1383ft 0kts
26-Aug-17 18:23 49.951392 -119.380442 268 1383ft 0kts
26-Aug-17 18:24 49.951392 -119.380442 268 1383ft 0kts
26-Aug-17 18:25 49.951392 -119.380442 268 1383ft 0kts
26-Aug-17 18:26 49.951392 -119.380442 268 1383ft 0kts
26-Aug-17 18:27 49.951392 -119.380442 268 1383ft 0kts
26-Aug-17 18:28 49.951392 -119.380329 267 1383ft 2kts
26-Aug-17 18:29 49.951644 -119.379559 183 1383ft 2kts
26-Aug-17 18:30 49.951787 -119.379565 175 1383ft 0kts
26-Aug-17 18:31 49.951786 -119.379565 175 1383ft 0kts
26-Aug-17 18:32 49.951048 -119.379473 175 1383ft 10kts
26-Aug-17 18:33 49.949623 -119.378916 100 1383ft 7kts
26-Aug-17 18:34 49.948233 -119.377988 168 1383ft 2kts
26-Aug-17 18:35 49.947937 -119.377783 143 1383ft 0kts
26-Aug-17 18:36 49.947935 -119.377780 143 1383ft 0kts
26-Aug-17 18:37 49.947509 -119.377005 94 1383ft 6kts
26-Aug-17 18:38 49.958124 -119.378053 354 1383ft 137kts
26-Aug-17 18:39 50.003700 -119.390665 338 3783ft 181kts
26-Aug-17 18:40 50.068218 -119.415540 350 5464ft 289kts
26-Aug-17 18:41 50.143957 -119.450897 312 9522ft 293kts
26-Aug-17 18:42 50.141170 -119.567294 227 11368ft 325kts
26-Aug-17 18:43 50.063135 -119.654633 217 14260ft 356kts
26-Aug-17 18:44 49.979456 -119.743597 217 17129ft 374kts
26-Aug-17 18:45 49.891724 -119.837142 217 19681ft 389kts
26-Aug-17 18:46 49.801080 -119.933742 217 21969ft 402kts
26-Aug-17 18:47 49.707135 -120.033247 217 23918ft 414kts
26-Aug-17 18:48 49.626584 -120.118258 217 25373ft 423kts
26-Aug-17 18:49 49.541625 -120.207394 217 26740ft 430kts
26-Aug-17 18:50 49.441463 -120.311582 217 28281ft 434kts
26-Aug-17 18:51 49.335742 -120.399319 204 30044ft 436kts
26-Aug-17 18:52 49.230704 -120.456965 203 30162ft 433kts
26-Aug-17 18:53 49.116976 -120.519038 203 30159ft 433kts
26-Aug-17 18:54 49.029888 -120.566603 203 30163ft 432kts
26-Aug-17 18:55 48.916430 -120.628570 203 30162ft 432kts
26-Aug-17 18:56 48.803365 -120.689909 203 30161ft 432kts
26-Aug-17 18:57 48.690308 -120.750871 203 30160ft 431kts
26-Aug-17 18:58 48.576882 -120.811706 203 30173ft 431kts
26-Aug-17 18:59 48.464010 -120.871971 203 30186ft 431kts
26-Aug-17 19:00 48.351085 -120.931988 203 30193ft 431kts
26-Aug-17 19:01 48.241506 -120.989962 203 30199ft 422kts
26-Aug-17 19:02 48.132072 -121.047732 203 29525ft 408kts
26-Aug-17 19:03 48.026784 -121.103009 203 27416ft 394kts
26-Aug-17 19:04 47.939435 -121.148541 202 25680ft 382kts
26-Aug-17 19:05 47.864392 -121.239465 256 23817ft 351kts
26-Aug-17 19:06 47.866956 -121.386821 274 21518ft 357kts
26-Aug-17 19:07 47.876090 -121.532481 274 19603ft 347kts
26-Aug-17 19:08 47.882483 -121.673187 259 17582ft 338kts
26-Aug-17 19:09 47.827996 -121.783004 225 16039ft 327kts
26-Aug-17 19:10 47.764976 -121.868384 224 15957ft 281kts
26-Aug-17 19:11 47.707575 -121.946067 223 14008ft 303kts
26-Aug-17 19:12 47.645166 -122.029828 223 12248ft 299kts
26-Aug-17 19:13 47.585816 -122.109181 222 10550ft 295kts
26-Aug-17 19:14 47.516182 -122.165108 184 9116ft 292kts
26-Aug-17 19:15 47.435292 -122.167330 180 7712ft 284kts
26-Aug-17 19:16 47.357160 -122.167631 180 5881ft 277kts
26-Aug-17 19:17 47.282575 -122.173048 209 4388ft 251kts
26-Aug-17 19:18 47.266134 -122.254493 266 3935ft 193kts
26-Aug-17 19:19 47.289315 -122.304474 349 3021ft 164kts
26-Aug-17 19:20 47.332220 -122.308761 358 2241ft 155kts
26-Aug-17 19:21 47.374907 -122.308271 359 1434ft 146kts
26-Aug-17 19:22 47.417185 -122.307952 0 693ft 147kts
26-Aug-17 19:23 47.443432 -122.307449 65 441ft 0kts
26-Aug-17 19:24 47.447217 -122.306341 1 441ft 9kts
26-Aug-17 19:25 47.448312 -122.305328 80 441ft 5kts
26-Aug-17 19:26 47.447174 -122.303134 126 441ft 5kts
26-Aug-17 19:27 47.446912 -122.300952 66 441ft 7kts
26-Aug-17 19:28 47.447600 -122.300720 310 441ft 2kts
26-Aug-17 19:29 47.447773 -122.301046 306 441ft 0kts
26-Aug-17 19:30 47.447773 -122.301047 306 441ft 0kts
26-Aug-17 19:31 47.447773 -122.301047 306 441ft 0kts
26-Aug-17 19:32 47.447773 -122.301047 306 441ft 0kts
26-Aug-17 19:33 47.447773 -122.301047 306 441ft 0kts
26-Aug-17 19:34 47.447773 -122.301047 306 441ft 0kts
26-Aug-17 19:35 47.447773 -122.301047 306 441ft 0kts

Navigation Log

Ident Type
Flight plan parsing failed, navigation log unavailable